createdAt,value
2018-02-08T00:00:05.137Z,6.97
2018-02-08T00:02:32.658Z,5.60
2018-02-08T00:05:00.188Z,5.97
2018-02-08T00:07:27.738Z,6.00
2018-02-08T00:09:55.464Z,8.07
2018-02-08T00:12:23.123Z,4.87
2018-02-08T00:14:50.625Z,8.73
2018-02-08T00:17:18.278Z,6.20
2018-02-08T00:19:45.860Z,7.37
2018-02-08T00:22:25.173Z,4.87
2018-02-08T00:24:52.742Z,5.20
2018-02-08T00:27:20.354Z,13.00
2018-02-08T00:29:47.866Z,5.67
2018-02-08T00:32:15.409Z,5.63
2018-02-08T00:34:42.983Z,6.60
2018-02-08T00:37:10.634Z,9.40
2018-02-08T00:39:38.254Z,5.10
2018-02-08T00:42:05.789Z,5.53
2018-02-08T00:44:34.089Z,7.33
2018-02-08T00:47:01.629Z,6.77
2018-02-08T00:49:29.922Z,8.70
2018-02-08T00:51:57.466Z,4.57
2018-02-08T00:54:25.135Z,8.10
2018-02-08T00:56:52.674Z,7.60
2018-02-08T00:59:20.966Z,5.53
2018-02-08T01:01:48.514Z,6.07
2018-02-08T01:04:16.816Z,7.90
2018-02-08T01:06:44.365Z,5.10
2018-02-08T01:09:11.982Z,10.23
2018-02-08T01:11:40.294Z,5.87
2018-02-08T01:14:07.827Z,5.30
2018-02-08T01:16:37.024Z,5.13
2018-02-08T01:19:04.611Z,7.03
2018-02-08T01:21:32.896Z,5.77
2018-02-08T01:24:00.435Z,6.00
2018-02-08T01:26:28.736Z,7.73
2018-02-08T01:28:56.355Z,6.80
2018-02-08T01:31:23.865Z,4.67
2018-02-08T01:33:51.385Z,6.80
2018-02-08T01:36:19.736Z,6.17
2018-02-08T01:38:47.312Z,6.47
2018-02-08T01:41:15.914Z,10.90
2018-02-08T01:43:44.287Z,7.87
2018-02-08T01:46:12.764Z,11.20
2018-02-08T01:48:40.462Z,7.60
2018-02-08T01:51:08.058Z,9.53
2018-02-08T01:53:37.138Z,5.20
2018-02-08T01:56:04.718Z,4.90
2018-02-08T01:58:32.632Z,6.00
2018-02-08T02:01:00.989Z,7.60
2018-02-08T02:03:29.306Z,11.43
2018-02-08T02:05:56.880Z,8.73
2018-02-08T02:08:24.414Z,6.57
2018-02-08T02:10:51.994Z,6.43
2018-02-08T02:13:19.697Z,8.30
2018-02-08T02:15:47.406Z,6.87
2018-02-08T02:18:15.032Z,4.93
2018-02-08T02:20:42.623Z,5.13
2018-02-08T02:23:10.258Z,6.13
2018-02-08T02:25:38.607Z,7.00
2018-02-08T02:28:06.190Z,4.60
2018-02-08T02:30:33.721Z,7.17
2018-02-08T02:33:01.288Z,11.37
2018-02-08T02:35:28.844Z,8.30
2018-02-08T02:37:56.564Z,7.47
2018-02-08T02:40:24.109Z,5.80
2018-02-08T02:42:52.439Z,10.77
2018-02-08T02:45:20.024Z,9.40
2018-02-08T02:47:47.572Z,8.60
2018-02-08T02:50:15.236Z,7.83
2018-02-08T02:52:42.810Z,8.23
2018-02-08T02:55:10.750Z,5.77
2018-02-08T02:57:38.291Z,9.00
2018-02-08T03:00:05.902Z,10.53
2018-02-08T03:02:34.252Z,6.60
2018-02-08T03:05:01.768Z,9.10
2018-02-08T03:07:29.350Z,8.20
2018-02-08T03:09:56.948Z,6.37
2018-02-08T03:12:24.554Z,7.40
2018-02-08T03:14:52.126Z,9.40
2018-02-08T03:17:19.694Z,6.07
2018-02-08T03:19:47.275Z,5.77
2018-02-08T03:22:14.842Z,7.40
2018-02-08T03:24:43.951Z,8.63
2018-02-08T03:27:11.570Z,6.83
2018-02-08T03:29:39.126Z,7.73
2018-02-08T03:32:06.824Z,8.27
2018-02-08T03:34:35.122Z,5.70
2018-02-08T03:37:03.490Z,8.70
2018-02-08T03:39:32.016Z,8.07
2018-02-08T03:41:59.570Z,7.03
2018-02-08T03:44:27.173Z,6.53
2018-02-08T03:46:54.817Z,6.37
2018-02-08T03:49:22.451Z,7.13
2018-02-08T03:51:50.119Z,8.30
2018-02-08T03:54:17.878Z,8.23
2018-02-08T03:56:45.454Z,5.33
2018-02-08T03:59:13.096Z,5.87
2018-02-08T04:01:40.658Z,8.30
2018-02-08T04:04:08.302Z,7.00
2018-02-08T04:06:35.985Z,7.37
2018-02-08T04:09:03.544Z,7.17
2018-02-08T04:11:31.091Z,7.43
2018-02-08T04:13:58.657Z,7.97
2018-02-08T04:16:26.196Z,7.47
2018-02-08T04:18:53.899Z,8.33
2018-02-08T04:21:21.523Z,7.97
2018-02-08T04:23:49.105Z,6.67
2018-02-08T04:26:16.766Z,7.27
2018-02-08T04:28:44.457Z,7.80
2018-02-08T04:31:12.088Z,8.87
2018-02-08T04:33:39.640Z,7.17
2018-02-08T04:36:07.313Z,5.43
2018-02-08T04:38:46.953Z,10.10
2018-02-08T04:41:26.487Z,5.80
2018-02-08T04:44:17.911Z,6.00
2018-02-08T04:47:07.179Z,8.43
2018-02-08T04:49:34.839Z,9.03
2018-02-08T04:52:02.417Z,12.30
2018-02-08T04:54:30.059Z,9.60
2018-02-08T04:56:57.671Z,9.47
2018-02-08T04:59:25.283Z,9.03
2018-02-08T05:01:52.853Z,7.20
2018-02-08T05:04:20.418Z,7.33
2018-02-08T05:06:47.991Z,7.83
2018-02-08T05:09:15.550Z,7.83
2018-02-08T05:11:44.126Z,6.40
2018-02-08T05:14:11.712Z,8.07
2018-02-08T05:16:39.306Z,9.47
2018-02-08T05:19:06.893Z,8.73
2018-02-08T05:21:34.469Z,9.30
2018-02-08T05:24:02.022Z,8.60
2018-02-08T05:26:29.608Z,9.53
2018-02-08T05:28:57.221Z,8.37
2018-02-08T05:31:24.885Z,9.10
2018-02-08T05:33:53.435Z,8.97
2018-02-08T05:36:21.785Z,6.60
2018-02-08T05:38:49.479Z,6.70
2018-02-08T05:41:17.801Z,6.27
2018-02-08T05:43:45.333Z,6.50
2018-02-08T05:46:12.907Z,8.13
2018-02-08T05:48:40.477Z,8.07
2018-02-08T05:51:08.109Z,6.87
2018-02-08T05:53:35.709Z,11.43
2018-02-08T05:56:03.274Z,5.77
2018-02-08T05:58:30.907Z,6.33
2018-02-08T06:00:59.250Z,7.50
2018-02-08T06:03:27.661Z,17.37
2018-02-08T06:05:55.241Z,7.67
2018-02-08T06:08:22.827Z,5.73
2018-02-08T06:10:50.417Z,8.17
2018-02-08T06:13:18.717Z,7.77
2018-02-08T06:15:46.305Z,7.97
2018-02-08T06:18:13.864Z,10.57
2018-02-08T06:20:41.449Z,6.30
2018-02-08T06:23:09.019Z,8.00
2018-02-08T06:25:36.747Z,12.83
2018-02-08T06:28:04.335Z,9.07
2018-02-08T06:30:31.917Z,7.20
2018-02-08T06:33:00.314Z,8.33
2018-02-08T06:35:27.889Z,7.60
2018-02-08T06:37:55.493Z,6.73
2018-02-08T06:40:23.041Z,12.80
2018-02-08T06:42:50.630Z,11.63
2018-02-08T06:45:19.205Z,9.77
2018-02-08T06:47:47.571Z,17.20
2018-02-08T06:50:15.175Z,12.50
2018-02-08T06:52:42.737Z,8.77
2018-02-08T06:55:10.309Z,8.73
2018-02-08T06:57:37.969Z,13.80
2018-02-08T07:00:05.511Z,14.10
2018-02-08T07:02:33.183Z,20.40
2018-02-08T07:05:00.861Z,8.30
2018-02-08T07:07:28.507Z,12.40
2018-02-08T07:09:56.281Z,14.13
2018-02-08T07:12:23.853Z,19.13
2018-02-08T07:14:51.425Z,22.53
2018-02-08T07:17:18.998Z,14.97
2018-02-08T07:19:46.563Z,12.63
2018-02-08T07:22:14.159Z,22.30
2018-02-08T07:24:41.738Z,18.97
2018-02-08T07:27:09.303Z,17.67
2018-02-08T07:29:36.864Z,16.53
2018-02-08T07:32:04.485Z,15.20
2018-02-08T07:34:32.976Z,16.20
2018-02-08T07:37:00.531Z,20.33
2018-02-08T07:39:28.269Z,15.80
2018-02-08T07:41:55.813Z,16.83
2018-02-08T07:44:23.593Z,16.67
2018-02-08T07:46:51.130Z,14.70
2018-02-08T07:49:18.712Z,15.13
2018-02-08T07:51:46.285Z,18.67
2018-02-08T07:54:14.619Z,13.87
2018-02-08T07:56:42.253Z,14.47
2018-02-08T07:59:09.858Z,11.83
2018-02-08T08:01:37.423Z,13.43
2018-02-08T08:04:04.988Z,14.97
2018-02-08T08:06:32.566Z,15.00
2018-02-08T08:09:00.970Z,16.00
2018-02-08T08:11:28.560Z,20.67
2018-02-08T08:13:56.178Z,14.13
2018-02-08T08:16:23.803Z,16.63
2018-02-08T08:18:51.548Z,22.13
2018-02-08T08:21:19.124Z,11.07
2018-02-08T08:23:46.692Z,9.13
2018-02-08T08:26:14.254Z,11.60
2018-02-08T08:28:41.858Z,11.53
2018-02-08T08:31:09.518Z,10.70
2018-02-08T08:33:37.318Z,13.13
2018-02-08T08:36:05.002Z,13.33
2018-02-08T08:38:32.542Z,14.50
2018-02-08T08:41:00.916Z,11.27
2018-02-08T08:43:28.520Z,12.37
2018-02-08T08:45:56.876Z,7.07
2018-02-08T08:48:24.430Z,11.53
2018-02-08T08:50:52.032Z,7.63
2018-02-08T08:53:19.616Z,8.87
2018-02-08T08:55:47.193Z,10.40
2018-02-08T08:58:14.723Z,9.90
2018-02-08T09:00:42.313Z,13.40
2018-02-08T09:03:09.938Z,9.47
2018-02-08T09:05:37.512Z,13.73
2018-02-08T09:08:05.068Z,10.30
2018-02-08T09:10:32.708Z,10.60
2018-02-08T09:13:01.128Z,11.40
2018-02-08T09:15:28.700Z,12.20
2018-02-08T09:17:56.292Z,12.40
2018-02-08T09:20:24.654Z,9.77
2018-02-08T09:22:52.186Z,10.27
2018-02-08T09:25:19.794Z,12.10
2018-02-08T09:27:48.160Z,8.93
2018-02-08T09:30:16.478Z,8.90
2018-02-08T09:32:44.234Z,9.27
2018-02-08T09:35:11.811Z,7.93
2018-02-08T09:37:39.476Z,8.50
2018-02-08T09:40:07.060Z,12.00
2018-02-08T09:42:34.678Z,16.30
2018-02-08T09:45:02.244Z,8.37
2018-02-08T09:47:30.065Z,12.23
2018-02-08T09:49:57.628Z,7.40
2018-02-08T09:52:25.970Z,16.13
2018-02-08T09:54:53.627Z,6.00
2018-02-08T09:57:21.916Z,13.10
2018-02-08T09:59:49.496Z,12.00
2018-02-08T10:02:17.074Z,9.10
2018-02-08T10:04:45.414Z,15.27
2018-02-08T10:07:12.990Z,20.80
2018-02-08T10:09:40.564Z,14.80
2018-02-08T10:12:08.938Z,20.63
2018-02-08T10:14:36.502Z,15.20
2018-02-08T10:17:04.873Z,12.63
2018-02-08T10:19:32.646Z,18.13
2018-02-08T10:22:00.994Z,13.63
2018-02-08T10:24:28.614Z,15.27
2018-02-08T10:26:56.216Z,13.67
2018-02-08T10:29:23.784Z,28.40
2018-02-08T10:31:52.092Z,10.47
2018-02-08T10:34:20.436Z,14.33
2018-02-08T10:36:48.034Z,9.30
2018-02-08T10:39:15.642Z,9.40
2018-02-08T10:41:43.314Z,10.73
2018-02-08T10:44:10.906Z,13.13
2018-02-08T10:46:39.224Z,12.43
2018-02-08T10:49:06.820Z,19.03
2018-02-08T10:51:34.419Z,9.90
2018-02-08T10:54:02.004Z,11.80
2018-02-08T10:56:29.718Z,12.07
2018-02-08T10:58:57.652Z,17.97
2018-02-08T11:01:25.220Z,19.97
2018-02-08T11:03:52.800Z,9.60
2018-02-08T11:06:20.377Z,13.57
2018-02-08T11:08:48.744Z,10.10
2018-02-08T11:11:16.340Z,15.40
2018-02-08T11:13:43.909Z,12.83
2018-02-08T11:16:11.519Z,9.83
2018-02-08T11:18:39.271Z,11.40
2018-02-08T11:21:06.857Z,12.83
2018-02-08T11:23:35.266Z,12.27
2018-02-08T11:26:02.829Z,7.80
2018-02-08T11:28:30.426Z,11.43
2018-02-08T11:30:58.022Z,15.97
2018-02-08T11:33:26.344Z,11.07
2018-02-08T11:35:54.096Z,17.17
2018-02-08T11:38:22.402Z,7.50
2018-02-08T11:40:49.967Z,9.60
2018-02-08T11:43:17.553Z,7.57
2018-02-08T11:45:45.869Z,19.33
2018-02-08T11:48:13.438Z,9.60
2018-02-08T11:50:41.014Z,7.10
2018-02-08T11:53:08.580Z,12.97
2018-02-08T11:55:36.164Z,9.77
2018-02-08T11:58:04.527Z,6.93
2018-02-08T12:00:32.219Z,12.70
2018-02-08T12:03:00.562Z,9.10
2018-02-08T12:05:28.180Z,6.13
2018-02-08T12:07:56.045Z,9.33
2018-02-08T12:10:23.641Z,9.10
2018-02-08T12:12:51.201Z,6.87
2018-02-08T12:15:19.544Z,10.10
2018-02-08T12:17:47.141Z,10.23
2018-02-08T12:20:14.837Z,18.20
2018-02-08T12:22:42.401Z,25.83
2018-02-08T12:25:10.761Z,8.73
2018-02-08T12:27:38.315Z,7.97
2018-02-08T12:30:05.899Z,9.77
2018-02-08T12:32:33.485Z,8.73
2018-02-08T12:35:01.087Z,14.67
2018-02-08T12:37:28.646Z,40.53
2018-02-08T12:39:56.206Z,10.27
2018-02-08T12:42:23.788Z,7.23
2018-02-08T12:44:52.117Z,16.20
2018-02-08T12:47:19.701Z,12.60
2018-02-08T12:49:47.421Z,7.63
2018-02-08T12:52:14.989Z,8.70
2018-02-08T12:54:42.584Z,11.07
2018-02-08T12:57:10.250Z,13.23
2018-02-08T12:59:37.877Z,14.97
2018-02-08T13:02:05.434Z,10.13
2018-02-08T13:04:33.051Z,9.07
2018-02-08T13:07:01.416Z,15.20
2018-02-08T13:09:28.965Z,7.93
2018-02-08T13:11:56.537Z,12.50
2018-02-08T13:14:24.137Z,8.97
2018-02-08T13:16:51.673Z,7.23
2018-02-08T13:19:19.994Z,8.50
2018-02-08T13:21:47.643Z,10.57
2018-02-08T13:24:15.181Z,14.60
2018-02-08T13:26:42.859Z,12.33
2018-02-08T13:29:10.525Z,10.03
2018-02-08T13:31:41.211Z,9.17
2018-02-08T13:34:08.773Z,7.60
2018-02-08T13:36:36.375Z,7.10
2018-02-08T13:39:03.941Z,8.97
2018-02-08T13:41:31.645Z,9.53
2018-02-08T13:43:59.263Z,9.03
2018-02-08T13:46:26.835Z,7.80
2018-02-08T13:48:59.910Z,10.90
2018-02-08T13:51:35.961Z,10.60
2018-02-08T13:54:11.216Z,9.37
2018-02-08T13:56:44.539Z,7.87
2018-02-08T13:59:19.250Z,12.40
2018-02-08T14:01:49.355Z,8.80
2018-02-08T14:04:16.890Z,8.07
2018-02-08T14:06:44.575Z,8.50
2018-02-08T14:09:12.213Z,5.60
2018-02-08T14:11:39.791Z,6.03
2018-02-08T14:14:07.395Z,6.60
2018-02-08T14:16:35.891Z,7.93
2018-02-08T14:19:03.481Z,9.03
2018-02-08T14:21:31.038Z,9.00
2018-02-08T14:23:58.713Z,9.67
2018-02-08T14:26:26.292Z,6.83
2018-02-08T14:28:53.869Z,8.17
2018-02-08T14:31:21.611Z,11.47
2018-02-08T14:33:49.168Z,9.53
2018-02-08T14:36:16.814Z,9.00
2018-02-08T14:38:44.385Z,8.17
2018-02-08T14:41:11.964Z,8.17
2018-02-08T14:43:39.597Z,11.07
2018-02-08T14:46:07.264Z,6.57
2018-02-08T14:48:34.826Z,7.77
2018-02-08T14:51:02.392Z,8.33
2018-02-08T14:53:29.956Z,9.50
2018-02-08T14:55:57.561Z,9.33
2018-02-08T14:58:25.961Z,6.37
2018-02-08T15:00:54.270Z,11.00
2018-02-08T15:03:21.865Z,10.77
2018-02-08T15:05:49.450Z,8.10
2018-02-08T15:08:17.772Z,10.40
2018-02-08T15:10:45.368Z,7.80
2018-02-08T15:13:12.930Z,8.70
2018-02-08T15:15:40.518Z,10.50
2018-02-08T15:18:08.066Z,10.07
2018-02-08T15:20:36.418Z,8.40
2018-02-08T15:23:03.952Z,9.03
2018-02-08T15:25:31.534Z,11.90
2018-02-08T15:27:59.135Z,8.00
2018-02-08T15:30:26.630Z,8.80
2018-02-08T15:32:54.274Z,8.13
2018-02-08T15:35:21.884Z,9.43
2018-02-08T15:37:49.456Z,6.73
2018-02-08T15:40:17.797Z,8.80
2018-02-08T15:42:45.374Z,8.00
2018-02-08T15:45:12.946Z,11.43
2018-02-08T15:47:41.331Z,9.57
2018-02-08T15:50:09.665Z,8.07
2018-02-08T15:52:37.252Z,7.77
2018-02-08T15:55:04.974Z,9.30
2018-02-08T15:57:32.614Z,9.70
2018-02-08T16:00:00.168Z,13.40
2018-02-08T16:02:27.846Z,10.70
2018-02-08T16:04:57.228Z,8.37
2018-02-08T16:07:24.810Z,10.10
2018-02-08T16:09:52.362Z,14.00
2018-02-08T16:12:20.124Z,10.03
2018-02-08T16:14:47.671Z,17.87
2018-02-08T16:17:15.284Z,18.60
2018-02-08T16:19:43.048Z,10.63
2018-02-08T16:22:10.626Z,16.60
2018-02-08T16:24:38.182Z,32.60
2018-02-08T16:27:05.770Z,17.43
2018-02-08T16:29:34.169Z,20.13
2018-02-08T16:32:01.718Z,15.50
2018-02-08T16:34:29.342Z,17.53
2018-02-08T16:36:58.087Z,25.03
2018-02-08T16:39:26.894Z,20.50
2018-02-08T16:41:54.485Z,38.30
2018-02-08T16:44:22.063Z,34.43
2018-02-08T16:46:50.422Z,35.33
2018-02-08T16:49:17.992Z,23.30
2018-02-08T16:51:46.368Z,30.97
2018-02-08T16:54:14.695Z,53.77
2018-02-08T16:56:42.318Z,36.20
2018-02-08T16:59:10.693Z,15.83
2018-02-08T17:01:39.067Z,424.77
2018-02-08T17:04:07.399Z,338.67
2018-02-08T17:06:34.955Z,197.07
2018-02-08T17:09:02.565Z,127.50
2018-02-08T17:11:30.968Z,112.90
2018-02-08T17:13:58.566Z,85.73
2018-02-08T17:16:26.288Z,78.30
2018-02-08T17:18:53.885Z,66.77
2018-02-08T17:21:21.446Z,69.53
2018-02-08T17:23:49.501Z,56.67
2018-02-08T17:26:17.247Z,51.47
2018-02-08T17:28:44.872Z,45.00
2018-02-08T17:31:12.426Z,48.30
2018-02-08T17:33:40.013Z,53.57
2018-02-08T17:36:08.374Z,46.27
2018-02-08T17:38:36.706Z,36.60
2018-02-08T17:41:04.285Z,49.97
2018-02-08T17:43:31.860Z,52.73
2018-02-08T17:45:59.420Z,39.40
2018-02-08T17:48:27.145Z,36.90
2018-02-08T17:50:54.830Z,44.47
2018-02-08T17:53:22.453Z,38.57
2018-02-08T17:55:50.938Z,53.37
2018-02-08T17:58:18.514Z,51.03
2018-02-08T18:00:46.383Z,42.40
2018-02-08T18:03:13.977Z,40.07
2018-02-08T18:05:41.690Z,38.40
2018-02-08T18:08:09.342Z,38.20
2018-02-08T18:10:37.013Z,40.77
2018-02-08T18:13:04.831Z,33.50
2018-02-08T18:15:32.427Z,33.17
2018-02-08T18:18:00.008Z,32.60
2018-02-08T18:20:27.549Z,36.60
2018-02-08T18:22:55.991Z,30.07
2018-02-08T18:25:25.120Z,30.03
2018-02-08T18:27:52.675Z,28.90
2018-02-08T18:30:20.525Z,28.40
2018-02-08T18:32:48.861Z,25.60
2018-02-08T18:35:16.505Z,24.13
2018-02-08T18:37:44.163Z,24.37
2018-02-08T18:40:11.747Z,24.63
2018-02-08T18:42:39.382Z,23.50
2018-02-08T18:45:07.129Z,27.50
2018-02-08T18:47:34.779Z,22.10
2018-02-08T18:50:03.151Z,25.03
2018-02-08T18:52:31.550Z,29.63
2018-02-08T18:55:00.565Z,22.20
2018-02-08T18:57:28.205Z,21.70
2018-02-08T18:59:55.804Z,21.62
2018-02-08T19:02:23.409Z,18.47
2018-02-08T19:04:51.930Z,25.57
2018-02-08T19:07:19.701Z,38.47
2018-02-08T19:09:47.279Z,26.53
2018-02-08T19:12:14.877Z,16.10
2018-02-08T19:14:43.205Z,20.50
2018-02-08T19:17:11.869Z,35.03
2018-02-08T19:19:39.589Z,19.07
2018-02-08T19:22:07.201Z,19.47
2018-02-08T19:24:34.983Z,17.40
2018-02-08T19:27:03.391Z,13.80
2018-02-08T19:29:31.065Z,14.77
2018-02-08T19:31:59.501Z,18.90
2018-02-08T19:34:27.057Z,11.97
2018-02-08T19:36:55.355Z,16.20
2018-02-08T19:39:23.783Z,13.80
2018-02-08T19:41:51.435Z,15.60
2018-02-08T19:44:19.867Z,13.97
2018-02-08T19:46:48.239Z,17.17
2018-02-08T19:49:15.876Z,15.60
2018-02-08T19:51:43.748Z,30.57
2018-02-08T19:54:11.333Z,17.17
2018-02-08T19:56:39.018Z,12.43
2018-02-08T19:59:06.593Z,15.80
2018-02-08T20:01:34.959Z,18.57
2018-02-08T20:04:02.629Z,13.40
2018-02-08T20:06:31.295Z,10.13
2018-02-08T20:08:59.871Z,15.03
2018-02-08T20:11:27.486Z,19.33
2018-02-08T20:13:55.137Z,21.80
2018-02-08T20:16:23.472Z,10.07
2018-02-08T20:18:51.085Z,14.57
2018-02-08T20:21:18.674Z,14.43
2018-02-08T20:23:46.564Z,26.33
2018-02-08T20:26:14.921Z,10.60
2018-02-08T20:28:42.629Z,12.83
2018-02-08T20:31:13.453Z,11.73
2018-02-08T20:33:41.087Z,12.07
2018-02-08T20:36:08.751Z,12.07
2018-02-08T20:38:36.425Z,13.87
2018-02-08T20:41:04.050Z,13.63
2018-02-08T20:43:31.661Z,14.07
2018-02-08T20:45:59.248Z,9.77
2018-02-08T20:48:26.881Z,13.60
2018-02-08T20:50:54.515Z,11.27
2018-02-08T20:53:22.146Z,11.37
2018-02-08T20:55:49.744Z,11.83
2018-02-08T20:58:17.380Z,17.90
2018-02-08T21:00:44.944Z,12.87
2018-02-08T21:03:12.599Z,9.90
2018-02-08T21:05:40.365Z,14.20
2018-02-08T21:08:07.973Z,9.83
2018-02-08T21:10:36.328Z,9.20
2018-02-08T21:13:04.060Z,12.07
2018-02-08T21:15:31.670Z,15.43
2018-02-08T21:17:59.272Z,11.23
2018-02-08T21:20:26.878Z,10.70
2018-02-08T21:22:54.442Z,11.60
2018-02-08T21:25:23.569Z,10.77
2018-02-08T21:27:52.076Z,7.40
2018-02-08T21:30:19.816Z,12.53
2018-02-08T21:32:47.648Z,12.67
2018-02-08T21:35:15.214Z,12.37
2018-02-08T21:37:42.840Z,13.00
2018-02-08T21:40:10.546Z,13.13
2018-02-08T21:42:38.112Z,8.70
2018-02-08T21:45:06.554Z,10.43
2018-02-08T21:47:34.295Z,10.27
2018-02-08T21:50:01.914Z,9.97
2018-02-08T21:52:29.512Z,13.57
2018-02-08T21:54:57.144Z,8.93
2018-02-08T21:57:24.718Z,13.10
2018-02-08T21:59:52.284Z,10.77
2018-02-08T22:02:19.913Z,13.20
2018-02-08T22:04:47.592Z,7.10
2018-02-08T22:07:15.954Z,10.80
2018-02-08T22:09:44.257Z,11.23
2018-02-08T22:12:11.791Z,11.30
2018-02-08T22:14:40.123Z,13.57
2018-02-08T22:17:07.699Z,12.53
2018-02-08T22:19:35.242Z,10.63
2018-02-08T22:22:02.810Z,11.53
2018-02-08T22:24:30.542Z,14.13
2018-02-08T22:26:58.143Z,16.43
2018-02-08T22:29:25.881Z,11.53
2018-02-08T22:31:53.472Z,11.10
2018-02-08T22:34:21.032Z,10.10
2018-02-08T22:36:48.589Z,15.00
2018-02-08T22:39:16.368Z,12.77
2018-02-08T22:41:44.694Z,13.27
2018-02-08T22:44:12.246Z,12.90
2018-02-08T22:46:39.848Z,13.40
2018-02-08T22:49:07.409Z,8.83
2018-02-08T22:51:35.932Z,10.80
2018-02-08T22:54:03.538Z,9.07
2018-02-08T22:56:31.112Z,9.60
2018-02-08T22:58:58.668Z,10.47
2018-02-08T23:01:26.816Z,9.67
2018-02-08T23:03:54.676Z,13.50
2018-02-08T23:06:22.224Z,6.70
2018-02-08T23:08:49.896Z,11.77
2018-02-08T23:11:17.554Z,9.07
2018-02-08T23:13:45.354Z,9.00
2018-02-08T23:16:13.982Z,13.50
2018-02-08T23:18:42.314Z,10.17
2018-02-08T23:21:09.919Z,8.80
2018-02-08T23:23:38.317Z,10.77
2018-02-08T23:26:05.900Z,10.80
2018-02-08T23:28:33.487Z,10.70
2018-02-08T23:31:01.060Z,10.03
2018-02-08T23:33:28.771Z,16.67
2018-02-08T23:35:56.351Z,9.40
2018-02-08T23:38:23.971Z,12.17
2018-02-08T23:40:51.521Z,14.60
2018-02-08T23:43:19.825Z,9.40
2018-02-08T23:45:47.577Z,8.73
2018-02-08T23:48:16.066Z,6.63
2018-02-08T23:50:43.717Z,11.13
2018-02-08T23:53:11.288Z,7.07
2018-02-08T23:55:38.945Z,6.33
2018-02-08T23:58:06.501Z,10.67
